createdAt,value
2018-12-26T00:01:02.898Z,93.49
2018-12-26T00:02:06.490Z,93.49
2018-12-26T00:03:09.508Z,93.53
2018-12-26T00:04:12.427Z,93.51
2018-12-26T00:05:18.225Z,93.84
2018-12-26T00:06:21.152Z,94.28
2018-12-26T00:07:24.095Z,94.28
2018-12-26T00:08:28.411Z,93.90
2018-12-26T00:09:32.044Z,93.90
2018-12-26T00:10:37.636Z,94.21
2018-12-26T00:11:40.869Z,94.13
2018-12-26T00:12:43.841Z,94.38
2018-12-26T00:13:47.460Z,94.38
2018-12-26T00:14:50.390Z,94.24
2018-12-26T00:15:53.301Z,94.24
2018-12-26T00:16:56.283Z,94.40
2018-12-26T00:18:00.555Z,94.73
2018-12-26T00:19:03.623Z,94.81
2018-12-26T00:20:06.663Z,95.04
2018-12-26T00:21:12.328Z,95.04
2018-12-26T00:22:15.278Z,94.90
2018-12-26T00:23:19.049Z,94.92
2018-12-26T00:24:22.363Z,94.72
2018-12-26T00:25:25.387Z,94.59
2018-12-26T00:26:28.431Z,94.59
2018-12-26T00:27:31.400Z,95.12
2018-12-26T00:28:34.353Z,94.96
2018-12-26T00:29:37.349Z,94.88
2018-12-26T00:30:40.624Z,95.04
2018-12-26T00:31:43.565Z,95.12
2018-12-26T00:32:46.567Z,94.96
2018-12-26T00:33:49.538Z,95.05
2018-12-26T00:34:52.514Z,95.05
2018-12-26T00:35:55.462Z,94.72
2018-12-26T00:37:00.255Z,94.69
2018-12-26T00:38:03.221Z,94.69
2018-12-26T00:39:08.427Z,95.03
2018-12-26T00:40:13.000Z,94.79
2018-12-26T00:41:16.059Z,95.38
2018-12-26T00:42:19.015Z,94.78
2018-12-26T00:43:24.739Z,94.78
2018-12-26T00:44:27.672Z,94.82
2018-12-26T00:45:30.639Z,94.76
2018-12-26T00:46:33.724Z,95.02
2018-12-26T00:47:36.642Z,95.15
2018-12-26T00:48:39.581Z,95.15
2018-12-26T00:49:42.828Z,94.99
2018-12-26T00:50:45.783Z,95.07
2018-12-26T00:51:49.130Z,95.07
2018-12-26T00:52:52.614Z,95.00
2018-12-26T00:53:55.582Z,95.44
2018-12-26T00:55:02.696Z,95.44
2018-12-26T00:56:10.373Z,95.12
2018-12-26T00:57:11.460Z,95.19
2018-12-26T00:58:14.400Z,95.03
2018-12-26T00:59:17.364Z,95.10
2018-12-26T01:00:20.372Z,94.93
2018-12-26T01:01:23.343Z,95.10
2018-12-26T01:02:26.556Z,95.10
2018-12-26T01:03:29.488Z,95.13
2018-12-26T01:04:33.634Z,95.13
2018-12-26T01:05:38.075Z,95.43
2018-12-26T01:06:42.437Z,95.41
2018-12-26T01:07:45.458Z,95.04
2018-12-26T01:08:51.140Z,94.97
2018-12-26T01:09:56.048Z,95.35
2018-12-26T01:10:58.821Z,95.34
2018-12-26T01:12:04.184Z,94.89
2018-12-26T01:13:07.130Z,95.32
2018-12-26T01:14:10.105Z,95.38
2018-12-26T01:15:13.371Z,95.55
2018-12-26T01:16:16.394Z,95.55
2018-12-26T01:17:23.923Z,95.92
2018-12-26T01:18:27.134Z,95.92
2018-12-26T01:19:30.543Z,95.89
2018-12-26T01:20:35.295Z,95.59
2018-12-26T01:21:41.185Z,95.64
2018-12-26T01:22:46.168Z,95.54
2018-12-26T01:23:48.736Z,95.54
2018-12-26T01:24:51.681Z,95.58
2018-12-26T01:25:57.764Z,95.51
2018-12-26T01:27:00.692Z,95.49
2018-12-26T01:28:03.935Z,95.49
2018-12-26T01:29:07.977Z,95.65
2018-12-26T01:30:13.581Z,95.35
2018-12-26T01:31:23.174Z,95.71
2018-12-26T01:32:25.722Z,95.52
2018-12-26T01:33:28.678Z,95.42
2018-12-26T01:34:32.125Z,95.42
2018-12-26T01:35:39.323Z,95.53
2018-12-26T01:36:42.290Z,95.77
2018-12-26T01:37:45.333Z,95.31
2018-12-26T01:38:48.269Z,95.31
2018-12-26T01:39:51.236Z,95.39
2018-12-26T01:40:58.148Z,95.61
2018-12-26T01:42:00.765Z,95.66
2018-12-26T01:43:03.736Z,95.66
2018-12-26T01:44:06.688Z,95.40
2018-12-26T01:45:10.088Z,95.40
2018-12-26T01:46:15.826Z,95.51
2018-12-26T01:47:19.181Z,95.08
2018-12-26T01:48:28.088Z,95.54
2018-12-26T01:49:26.722Z,95.06
2018-12-26T01:50:29.683Z,94.93
2018-12-26T01:51:32.747Z,95.17
2018-12-26T01:52:38.445Z,95.19
2018-12-26T01:53:41.720Z,94.91
2018-12-26T01:54:44.739Z,95.33
2018-12-26T01:55:51.403Z,95.12
2018-12-26T01:56:56.858Z,95.07
2018-12-26T01:57:59.829Z,95.49
2018-12-26T01:59:02.761Z,95.38
2018-12-26T02:00:08.579Z,95.79
2018-12-26T02:01:11.559Z,95.92
2018-12-26T02:02:14.504Z,95.83
2018-12-26T02:03:17.538Z,95.71
2018-12-26T02:04:22.451Z,95.71
2018-12-26T02:05:25.478Z,96.31
2018-12-26T02:06:35.681Z,96.61
2018-12-26T02:07:38.619Z,96.25
2018-12-26T02:08:41.657Z,96.22
2018-12-26T02:09:44.615Z,96.56
2018-12-26T02:10:49.172Z,96.22
2018-12-26T02:11:52.461Z,96.22
2018-12-26T02:12:55.448Z,96.48
2018-12-26T02:13:58.391Z,96.65
2018-12-26T02:15:02.919Z,96.79
2018-12-26T02:16:11.279Z,96.50
2018-12-26T02:17:14.330Z,96.38
2018-12-26T02:18:19.725Z,96.49
2018-12-26T02:19:24.816Z,97.03
2018-12-26T02:20:29.884Z,97.03
2018-12-26T02:21:32.881Z,96.90
2018-12-26T02:22:36.284Z,97.29
2018-12-26T02:23:39.316Z,97.29
2018-12-26T02:24:42.567Z,96.69
2018-12-26T02:25:45.988Z,96.69
2018-12-26T02:26:48.972Z,97.16
2018-12-26T02:27:52.021Z,97.02
2018-12-26T02:28:54.968Z,97.02
2018-12-26T02:29:58.207Z,96.91
2018-12-26T02:31:01.468Z,97.42
2018-12-26T02:32:06.862Z,97.42
2018-12-26T02:33:10.755Z,97.47
2018-12-26T02:34:14.159Z,97.47
2018-12-26T02:35:19.338Z,97.67
2018-12-26T02:36:22.300Z,97.41
2018-12-26T02:37:26.822Z,97.55
2018-12-26T02:38:29.831Z,97.38
2018-12-26T02:39:32.764Z,97.75
2018-12-26T02:40:36.754Z,97.66
2018-12-26T02:41:39.684Z,97.48
2018-12-26T02:42:42.600Z,97.46
2018-12-26T02:43:45.970Z,97.46
2018-12-26T02:44:48.997Z,97.18
2018-12-26T02:45:52.388Z,97.18
2018-12-26T02:46:55.438Z,97.29
2018-12-26T02:47:58.357Z,97.29
2018-12-26T02:49:01.352Z,97.34
2018-12-26T02:50:04.678Z,97.34
2018-12-26T02:51:07.635Z,97.15
2018-12-26T02:52:10.579Z,96.98
2018-12-26T02:53:13.459Z,96.98
2018-12-26T02:54:16.375Z,97.55
2018-12-26T02:55:19.327Z,97.53
2018-12-26T02:56:22.610Z,97.43
2018-12-26T02:57:25.983Z,97.43
2018-12-26T02:58:28.919Z,97.14
2018-12-26T02:59:31.842Z,97.53
2018-12-26T03:00:34.875Z,97.03
2018-12-26T03:01:37.858Z,97.03
2018-12-26T03:02:41.072Z,97.00
2018-12-26T03:03:44.011Z,97.45
2018-12-26T03:04:47.396Z,97.16
2018-12-26T03:05:50.320Z,97.29
2018-12-26T03:06:53.319Z,97.29
2018-12-26T03:07:56.310Z,97.22
2018-12-26T03:09:05.658Z,97.45
2018-12-26T03:10:08.656Z,96.82
2018-12-26T03:11:14.607Z,96.35
2018-12-26T03:12:17.570Z,96.48
2018-12-26T03:13:20.575Z,96.54
2018-12-26T03:14:23.510Z,96.79
2018-12-26T03:15:26.744Z,96.79
2018-12-26T03:16:29.698Z,97.17
2018-12-26T03:17:34.198Z,97.68
2018-12-26T03:18:37.189Z,97.96
2018-12-26T03:19:40.142Z,98.08
2018-12-26T03:20:43.106Z,97.96
2018-12-26T03:21:46.772Z,97.96
2018-12-26T03:22:49.702Z,98.12
2018-12-26T03:23:52.681Z,98.08
2018-12-26T03:24:55.608Z,98.08
2018-12-26T03:25:58.637Z,97.97
2018-12-26T03:27:01.993Z,98.11
2018-12-26T03:28:05.212Z,97.84
2018-12-26T03:29:08.179Z,98.11
2018-12-26T03:30:11.101Z,97.94
2018-12-26T03:31:14.150Z,97.71
2018-12-26T03:32:17.067Z,97.53
2018-12-26T03:33:19.993Z,98.04
2018-12-26T03:34:23.215Z,98.01
2018-12-26T03:35:26.184Z,97.96
2018-12-26T03:36:29.090Z,97.96
2018-12-26T03:37:32.568Z,97.84
2018-12-26T03:38:35.420Z,97.65
2018-12-26T03:39:38.328Z,97.65
2018-12-26T03:40:41.561Z,98.00
2018-12-26T03:41:44.491Z,97.49
2018-12-26T03:42:47.518Z,97.41
2018-12-26T03:43:56.745Z,97.41
2018-12-26T03:44:59.669Z,97.66
2018-12-26T03:46:03.082Z,97.74
2018-12-26T03:47:06.303Z,97.76
2018-12-26T03:48:09.321Z,97.76
2018-12-26T03:49:12.242Z,97.84
2018-12-26T03:50:15.121Z,97.94
2018-12-26T03:51:18.158Z,97.79
2018-12-26T03:52:21.505Z,98.24
2018-12-26T03:53:24.765Z,98.46
2018-12-26T03:54:27.713Z,98.22
2018-12-26T03:55:30.616Z,98.24
2018-12-26T03:56:33.753Z,98.10
2018-12-26T03:57:36.730Z,98.10
2018-12-26T03:58:40.115Z,98.28
2018-12-26T03:59:43.343Z,97.68
2018-12-26T04:00:46.217Z,98.17
2018-12-26T04:01:49.090Z,97.58
2018-12-26T04:02:54.558Z,97.81
2018-12-26T04:03:57.516Z,98.11
2018-12-26T04:05:00.841Z,97.44
2018-12-26T04:06:04.039Z,97.64
2018-12-26T04:07:06.984Z,97.83
2018-12-26T04:08:09.972Z,97.37
2018-12-26T04:09:12.956Z,97.30
2018-12-26T04:10:15.938Z,97.73
2018-12-26T04:11:19.312Z,97.29
2018-12-26T04:12:24.372Z,97.26
2018-12-26T04:13:27.877Z,97.02
2018-12-26T04:14:30.784Z,97.11
2018-12-26T04:15:33.813Z,97.19
2018-12-26T04:16:36.728Z,97.19
2018-12-26T04:17:39.639Z,97.15
2018-12-26T04:18:42.911Z,96.78
2018-12-26T04:19:45.863Z,97.16
2018-12-26T04:20:48.771Z,97.16
2018-12-26T04:21:51.714Z,97.16
2018-12-26T04:22:54.628Z,97.00
2018-12-26T04:23:57.618Z,97.17
2018-12-26T04:25:00.869Z,97.76
2018-12-26T04:26:03.780Z,97.46
2018-12-26T04:27:15.331Z,97.70
2018-12-26T04:28:11.300Z,97.70
2018-12-26T04:29:14.297Z,97.08
2018-12-26T04:30:17.588Z,97.17
2018-12-26T04:31:20.814Z,97.21
2018-12-26T04:32:23.739Z,97.56
2018-12-26T04:33:26.741Z,97.56
2018-12-26T04:34:29.751Z,97.49
2018-12-26T04:35:32.968Z,97.20
2018-12-26T04:36:35.952Z,96.78
2018-12-26T04:37:39.160Z,96.86
2018-12-26T04:38:42.102Z,96.71
2018-12-26T04:39:45.107Z,96.66
2018-12-26T04:40:48.155Z,96.65
2018-12-26T04:41:51.437Z,96.79
2018-12-26T04:42:54.371Z,96.85
2018-12-26T04:43:57.564Z,97.00
2018-12-26T04:45:00.576Z,96.85
2018-12-26T04:46:03.541Z,96.77
2018-12-26T04:47:06.472Z,96.38
2018-12-26T04:48:09.443Z,96.64
2018-12-26T04:49:12.357Z,96.33
2018-12-26T04:50:18.789Z,96.34
2018-12-26T04:51:21.727Z,96.21
2018-12-26T04:52:25.132Z,96.21
2018-12-26T04:53:28.050Z,96.55
2018-12-26T04:54:31.523Z,96.46
2018-12-26T04:55:34.506Z,96.93
2018-12-26T04:56:39.017Z,96.99
2018-12-26T04:57:41.920Z,96.64
2018-12-26T04:58:44.897Z,96.52
2018-12-26T04:59:47.897Z,96.59
2018-12-26T05:00:50.820Z,96.98
2018-12-26T05:01:53.747Z,96.83
2018-12-26T05:02:56.959Z,96.70
2018-12-26T05:03:59.927Z,96.56
2018-12-26T05:05:03.042Z,96.29
2018-12-26T05:06:06.002Z,96.41
2018-12-26T05:07:08.914Z,96.71
2018-12-26T05:08:11.826Z,96.71
2018-12-26T05:09:17.433Z,96.60
2018-12-26T05:10:20.425Z,96.60
2018-12-26T05:11:23.322Z,96.77
2018-12-26T05:12:26.221Z,96.55
2018-12-26T05:13:29.388Z,96.09
2018-12-26T05:14:32.841Z,96.29
2018-12-26T05:15:37.408Z,96.52
2018-12-26T05:16:40.328Z,96.47
2018-12-26T05:17:43.248Z,96.34
2018-12-26T05:18:46.900Z,96.34
2018-12-26T05:19:49.879Z,96.15
2018-12-26T05:20:52.808Z,96.49
2018-12-26T05:21:56.071Z,96.77
2018-12-26T05:22:59.006Z,96.65
2018-12-26T05:24:01.906Z,97.69
2018-12-26T05:25:04.920Z,97.21
2018-12-26T05:26:07.878Z,97.47
2018-12-26T05:27:10.787Z,97.13
2018-12-26T05:28:13.998Z,97.13
2018-12-26T05:29:17.271Z,97.07
2018-12-26T05:30:20.275Z,97.58
2018-12-26T05:31:23.216Z,97.87
2018-12-26T05:32:26.233Z,97.99
2018-12-26T05:33:29.184Z,97.64
2018-12-26T05:34:32.421Z,97.43
2018-12-26T05:35:35.882Z,97.99
2018-12-26T05:36:38.790Z,97.41
2018-12-26T05:37:41.808Z,97.41
2018-12-26T05:38:44.751Z,97.73
2018-12-26T05:39:47.663Z,97.73
2018-12-26T05:40:50.940Z,97.85
2018-12-26T05:41:53.884Z,98.13
2018-12-26T05:42:56.780Z,98.13
2018-12-26T05:43:59.732Z,98.29
2018-12-26T05:45:02.689Z,97.97
2018-12-26T05:46:05.708Z,97.97
2018-12-26T05:47:08.895Z,98.01
2018-12-26T05:48:11.907Z,97.76
2018-12-26T05:49:15.243Z,97.83
2018-12-26T05:50:18.303Z,98.51
2018-12-26T05:51:21.312Z,98.41
2018-12-26T05:52:24.521Z,98.33
2018-12-26T05:53:27.796Z,98.33
2018-12-26T05:54:30.692Z,98.33
2018-12-26T05:55:33.658Z,98.33
2018-12-26T05:56:36.668Z,98.73
2018-12-26T05:57:42.913Z,98.77
2018-12-26T05:58:45.333Z,98.62
2018-12-26T05:59:48.750Z,98.55
2018-12-26T06:00:52.197Z,98.86
2018-12-26T06:01:55.160Z,98.87
2018-12-26T06:03:00.176Z,98.37
2018-12-26T06:04:02.818Z,98.68
2018-12-26T06:05:05.745Z,98.20
2018-12-26T06:06:09.078Z,98.36
2018-12-26T06:07:12.019Z,98.25
2018-12-26T06:08:14.933Z,98.63
2018-12-26T06:09:17.962Z,98.35
2018-12-26T06:10:20.875Z,98.61
2018-12-26T06:11:23.819Z,98.58
2018-12-26T06:12:27.617Z,98.64
2018-12-26T06:13:30.524Z,98.74
2018-12-26T06:14:33.533Z,98.47
2018-12-26T06:15:36.929Z,98.21
2018-12-26T06:16:39.845Z,98.16
2018-12-26T06:17:42.769Z,98.16
2018-12-26T06:18:46.213Z,97.94
2018-12-26T06:19:49.201Z,97.94
2018-12-26T06:20:52.108Z,98.66
2018-12-26T06:21:55.051Z,97.99
2018-12-26T06:22:57.960Z,98.80
2018-12-26T06:24:00.970Z,98.20
2018-12-26T06:25:04.369Z,98.17
2018-12-26T06:26:07.284Z,98.33
2018-12-26T06:27:10.645Z,98.29
2018-12-26T06:28:13.565Z,98.02
2018-12-26T06:29:16.490Z,98.11
2018-12-26T06:43:50.830Z,98.32
2018-12-26T06:44:53.795Z,98.38
2018-12-26T06:45:56.805Z,98.38
2018-12-26T06:46:59.687Z,98.64
2018-12-26T06:48:02.639Z,99.24
2018-12-26T06:49:05.858Z,98.70
2018-12-26T06:50:08.790Z,98.44
2018-12-26T06:51:11.803Z,98.61
2018-12-26T06:52:14.690Z,98.88
2018-12-26T06:53:18.075Z,98.36
2018-12-26T06:54:21.004Z,98.91
2018-12-26T06:55:24.235Z,98.91
2018-12-26T06:56:27.286Z,98.52
2018-12-26T06:57:30.305Z,98.94
2018-12-26T06:58:33.681Z,98.83
2018-12-26T06:59:36.598Z,98.33
2018-12-26T07:00:40.533Z,98.76
2018-12-26T07:01:43.743Z,98.85
2018-12-26T07:02:46.734Z,98.63
2018-12-26T07:03:49.647Z,98.56
2018-12-26T07:04:52.590Z,98.52
2018-12-26T07:05:55.576Z,98.84
2018-12-26T07:06:58.492Z,98.98
2018-12-26T07:08:03.349Z,99.00
2018-12-26T07:09:06.254Z,98.82
2018-12-26T07:10:09.862Z,98.79
2018-12-26T07:11:12.799Z,98.80
2018-12-26T07:12:15.749Z,98.80
2018-12-26T07:13:18.762Z,98.75
2018-12-26T07:14:21.971Z,98.75
2018-12-26T07:15:24.896Z,99.09
2018-12-26T07:16:27.846Z,98.79
2018-12-26T07:17:30.728Z,98.41
2018-12-26T07:18:33.700Z,98.41
2018-12-26T07:19:37.091Z,98.80
2018-12-26T07:20:40.312Z,98.80
2018-12-26T07:21:43.257Z,98.41
2018-12-26T07:22:46.179Z,98.09
2018-12-26T07:23:49.191Z,98.35
2018-12-26T07:24:52.607Z,98.35
2018-12-26T07:25:55.525Z,98.21
2018-12-26T07:26:58.744Z,97.96
2018-12-26T07:28:09.027Z,97.66
2018-12-26T07:29:08.879Z,98.09
2018-12-26T07:30:12.256Z,98.02
2018-12-26T07:31:15.184Z,97.83
2018-12-26T07:32:18.107Z,97.75
2018-12-26T07:33:21.562Z,97.72
2018-12-26T07:34:24.680Z,97.77
2018-12-26T07:35:30.578Z,97.32
2018-12-26T07:36:33.515Z,97.12
2018-12-26T07:37:36.451Z,97.12
2018-12-26T07:38:39.375Z,97.05
2018-12-26T07:39:44.243Z,96.68
2018-12-26T07:40:47.594Z,97.01
2018-12-26T07:41:50.560Z,96.67
2018-12-26T07:42:53.461Z,96.80
2018-12-26T07:43:56.506Z,96.80
2018-12-26T07:44:59.429Z,97.21
2018-12-26T07:46:02.663Z,97.21
2018-12-26T07:47:06.074Z,97.20
2018-12-26T07:48:08.985Z,97.26
2018-12-26T07:49:11.998Z,97.09
2018-12-26T07:50:14.929Z,97.35
2018-12-26T07:51:17.843Z,97.38
2018-12-26T07:52:21.233Z,97.46
2018-12-26T07:53:24.248Z,97.46
2018-12-26T07:54:27.165Z,97.16
2018-12-26T07:55:30.086Z,97.70
2018-12-26T07:56:33.004Z,97.26
2018-12-26T07:57:36.012Z,97.65
2018-12-26T07:58:39.344Z,97.03
2018-12-26T07:59:42.300Z,97.56
2018-12-26T08:00:46.099Z,97.33
2018-12-26T08:01:49.123Z,97.14
2018-12-26T08:02:52.096Z,96.96
2018-12-26T08:03:55.123Z,96.96
2018-12-26T08:04:58.371Z,97.16
2018-12-26T08:06:01.378Z,96.92
2018-12-26T08:07:04.413Z,97.58
2018-12-26T08:08:07.510Z,97.21
2018-12-26T08:09:10.647Z,97.21
2018-12-26T08:10:13.638Z,97.45
2018-12-26T08:11:16.844Z,97.17
2018-12-26T08:12:19.848Z,97.17
2018-12-26T08:13:22.805Z,97.25
2018-12-26T08:14:25.810Z,97.25
2018-12-26T08:15:28.763Z,97.68
2018-12-26T08:16:31.668Z,97.68
2018-12-26T08:17:34.912Z,97.18
2018-12-26T08:18:37.816Z,97.18
2018-12-26T08:19:40.779Z,97.18
2018-12-26T08:20:43.691Z,97.18
2018-12-26T08:21:48.202Z,97.12
2018-12-26T08:22:51.216Z,97.52
2018-12-26T08:23:54.526Z,97.52
2018-12-26T08:24:57.560Z,97.77
2018-12-26T08:26:00.474Z,97.35
2018-12-26T08:27:03.391Z,97.58
2018-12-26T08:28:06.717Z,97.58
2018-12-26T08:29:11.952Z,97.18
2018-12-26T08:30:15.279Z,97.65
2018-12-26T08:31:18.232Z,97.65
2018-12-26T08:32:21.255Z,97.02
2018-12-26T08:33:24.576Z,97.37
2018-12-26T08:34:28.384Z,97.37
2018-12-26T08:35:31.311Z,97.31
2018-12-26T08:36:37.301Z,97.45
2018-12-26T08:37:40.259Z,97.49
2018-12-26T08:38:43.212Z,97.49
2018-12-26T08:39:46.182Z,97.50
2018-12-26T08:40:50.071Z,97.12
2018-12-26T08:41:53.997Z,97.17
2018-12-26T08:42:57.370Z,97.17
2018-12-26T08:44:00.385Z,97.42
2018-12-26T08:45:03.313Z,97.14
2018-12-26T08:46:09.121Z,97.08
2018-12-26T08:47:12.558Z,97.24
2018-12-26T08:48:15.458Z,97.49
2018-12-26T08:49:18.817Z,97.34
2018-12-26T08:50:21.815Z,97.34
2018-12-26T08:51:24.735Z,97.57
2018-12-26T08:52:31.489Z,97.98
2018-12-26T08:53:34.432Z,97.45
2018-12-26T08:54:37.536Z,97.75
2018-12-26T08:55:40.948Z,97.47
2018-12-26T08:56:44.411Z,97.31
2018-12-26T08:57:50.465Z,97.25
2018-12-26T08:58:55.414Z,97.41
2018-12-26T08:59:58.351Z,97.59
2018-12-26T09:01:01.365Z,97.59
2018-12-26T09:02:04.713Z,97.12
2018-12-26T09:03:07.705Z,97.12
2018-12-26T09:04:11.028Z,97.19
2018-12-26T09:05:13.947Z,97.19
2018-12-26T09:06:18.292Z,96.96
2018-12-26T09:07:21.382Z,96.88
2018-12-26T09:08:24.781Z,96.88
2018-12-26T09:09:27.703Z,96.85
2018-12-26T09:10:30.648Z,96.51
2018-12-26T09:11:36.941Z,96.78
2018-12-26T09:12:42.237Z,96.72
2018-12-26T09:13:45.143Z,96.83
2018-12-26T09:14:50.436Z,96.74
2018-12-26T09:15:54.730Z,97.02
2018-12-26T09:16:57.781Z,96.71
2018-12-26T09:18:00.696Z,96.65
2018-12-26T09:19:04.171Z,96.85
2018-12-26T09:20:09.685Z,97.05
2018-12-26T09:21:14.215Z,96.72
2018-12-26T09:22:17.132Z,96.10
2018-12-26T09:23:29.086Z,96.36
2018-12-26T09:24:32.024Z,96.20
2018-12-26T09:25:36.373Z,96.20
2018-12-26T09:26:39.490Z,97.05
2018-12-26T09:27:42.965Z,96.77
2018-12-26T09:28:46.297Z,96.72
2018-12-26T09:29:49.241Z,96.70
2018-12-26T09:30:52.734Z,96.59
2018-12-26T09:31:55.665Z,96.79
2018-12-26T09:32:58.687Z,96.81
2018-12-26T09:34:01.988Z,96.76
2018-12-26T09:35:04.936Z,97.15
2018-12-26T09:36:09.019Z,97.08
2018-12-26T09:37:12.033Z,97.01
2018-12-26T09:38:16.731Z,97.05
2018-12-26T09:39:22.619Z,97.07
2018-12-26T09:40:32.109Z,96.94
2018-12-26T09:41:38.432Z,96.79
2018-12-26T09:42:41.365Z,96.97
2018-12-26T09:43:44.396Z,96.58
2018-12-26T09:44:54.364Z,96.64
2018-12-26T09:45:52.016Z,96.13
2018-12-26T09:46:55.287Z,96.13
2018-12-26T09:47:58.229Z,96.42
2018-12-26T09:49:01.607Z,96.15
2018-12-26T09:50:04.627Z,95.79
2018-12-26T09:51:07.987Z,95.79
2018-12-26T09:52:11.401Z,95.22
2018-12-26T09:53:14.728Z,95.22
2018-12-26T09:54:18.199Z,95.00
2018-12-26T09:55:21.120Z,95.00
2018-12-26T09:56:25.613Z,94.94
2018-12-26T09:57:28.583Z,94.85
2018-12-26T09:58:31.608Z,94.49
2018-12-26T09:59:34.828Z,94.22
2018-12-26T10:00:37.790Z,94.24
2018-12-26T10:01:41.672Z,94.39
2018-12-26T10:02:48.067Z,94.43
2018-12-26T10:03:50.996Z,94.20
2018-12-26T10:04:54.028Z,94.20
2018-12-26T10:05:57.271Z,94.50
2018-12-26T10:07:00.286Z,94.33
2018-12-26T10:08:03.351Z,94.33
2018-12-26T10:09:06.317Z,94.01
2018-12-26T10:10:09.348Z,93.48
2018-12-26T10:11:12.326Z,93.64
2018-12-26T10:12:15.273Z,93.51
2018-12-26T10:13:18.207Z,93.49
2018-12-26T10:14:21.191Z,93.39
2018-12-26T10:15:27.957Z,93.38
2018-12-26T10:16:39.103Z,93.20
2018-12-26T10:17:41.805Z,93.46
2018-12-26T10:18:44.733Z,93.46
2018-12-26T10:19:47.753Z,93.23
2018-12-26T10:20:50.643Z,93.50
2018-12-26T10:21:53.635Z,93.50
2018-12-26T10:22:56.902Z,93.21
2018-12-26T10:23:59.857Z,93.49
2018-12-26T10:25:03.033Z,93.49
2018-12-26T10:26:05.956Z,93.28
2018-12-26T10:27:08.887Z,93.28
2018-12-26T10:28:11.788Z,92.72
2018-12-26T10:29:17.421Z,92.81
2018-12-26T10:30:20.421Z,92.81
2018-12-26T10:31:23.461Z,92.60
2018-12-26T10:32:26.387Z,92.50
2018-12-26T10:33:29.903Z,92.53
2018-12-26T10:34:32.821Z,92.37
2018-12-26T10:35:36.208Z,92.37
2018-12-26T10:36:39.270Z,92.01
2018-12-26T10:37:42.666Z,92.03
2018-12-26T10:38:45.578Z,92.00
2018-12-26T10:39:48.509Z,91.78
2018-12-26T10:40:51.445Z,91.21
2018-12-26T10:41:54.474Z,91.26
2018-12-26T10:42:58.709Z,91.28
2018-12-26T10:44:01.642Z,91.45
2018-12-26T10:45:04.953Z,91.27
2018-12-26T10:46:07.866Z,91.27
2018-12-26T10:47:12.898Z,91.22
2018-12-26T10:48:15.869Z,90.89
2018-12-26T10:49:18.852Z,90.89
2018-12-26T10:50:22.226Z,91.35
2018-12-26T10:51:25.157Z,91.39
2018-12-26T10:52:28.232Z,90.87
2018-12-26T10:53:33.169Z,90.65
2018-12-26T10:54:36.079Z,91.07
2018-12-26T10:55:38.992Z,91.07
2018-12-26T10:56:41.924Z,90.99
2018-12-26T10:57:45.276Z,90.78
2018-12-26T10:58:48.659Z,90.69
2018-12-26T10:59:51.946Z,90.81
2018-12-26T11:00:54.993Z,90.40
2018-12-26T11:02:07.934Z,90.57
2018-12-26T11:03:14.363Z,90.57
2018-12-26T11:04:17.277Z,90.54
2018-12-26T11:05:20.205Z,91.05
2018-12-26T11:06:38.139Z,90.31
2018-12-26T11:07:41.646Z,90.31
2018-12-26T11:08:47.487Z,90.68
2018-12-26T11:09:53.710Z,90.33
2018-12-26T11:10:56.208Z,89.58
2018-12-26T11:12:01.536Z,89.58
2018-12-26T11:13:04.874Z,89.89
2018-12-26T11:14:08.131Z,89.89
2018-12-26T11:15:11.044Z,90.13
2018-12-26T11:16:13.986Z,90.27
2018-12-26T11:17:16.928Z,90.54
2018-12-26T11:18:21.319Z,89.77
2018-12-26T11:19:25.876Z,90.00
2018-12-26T11:20:29.338Z,89.80
2018-12-26T11:21:32.349Z,89.82
2018-12-26T11:22:36.121Z,89.53
2018-12-26T11:23:43.128Z,89.38
2018-12-26T11:24:46.499Z,89.01
2018-12-26T11:25:49.840Z,89.03
2018-12-26T11:26:52.848Z,89.10
2018-12-26T11:27:55.784Z,88.52
2018-12-26T11:29:00.957Z,88.52
2018-12-26T11:42:47.134Z,88.47
2018-12-26T11:43:50.382Z,88.26
2018-12-26T11:44:53.407Z,88.26
2018-12-26T11:45:58.049Z,87.84
2018-12-26T11:47:04.873Z,87.78
2018-12-26T11:48:11.142Z,87.59
2018-12-26T11:49:18.099Z,88.02
2018-12-26T11:50:23.378Z,87.53
2018-12-26T11:51:28.134Z,87.41
2018-12-26T11:52:34.889Z,87.41
2018-12-26T11:53:37.863Z,87.37
2018-12-26T11:54:43.711Z,87.56
2018-12-26T11:55:46.666Z,86.66
2018-12-26T11:56:49.699Z,86.98
2018-12-26T11:57:54.333Z,86.98
2018-12-26T11:58:57.299Z,86.49
2018-12-26T12:00:00.211Z,86.49
2018-12-26T12:01:03.579Z,86.41
2018-12-26T12:02:06.609Z,86.41
2018-12-26T12:03:10.000Z,86.67
2018-12-26T12:04:13.181Z,86.69
2018-12-26T12:05:16.423Z,86.64
2018-12-26T12:06:21.117Z,86.79
2018-12-26T12:07:24.361Z,86.79
2018-12-26T12:08:27.280Z,86.48
2018-12-26T12:09:33.603Z,86.48
2018-12-26T12:10:39.322Z,86.24
2018-12-26T12:11:42.365Z,86.03
2018-12-26T12:12:45.565Z,86.10
2018-12-26T12:13:54.488Z,85.77
2018-12-26T12:15:03.391Z,85.85
2018-12-26T12:16:06.337Z,86.10
2018-12-26T12:17:09.572Z,86.04
2018-12-26T12:18:15.148Z,85.42
2018-12-26T12:19:20.274Z,85.42
2018-12-26T12:20:23.660Z,85.66
2018-12-26T12:21:26.668Z,85.47
2018-12-26T12:22:29.614Z,85.24
2018-12-26T12:23:32.642Z,85.22
2018-12-26T12:24:36.668Z,84.81
2018-12-26T12:25:39.581Z,84.25
2018-12-26T12:26:43.414Z,83.89
2018-12-26T12:27:46.358Z,83.93
2018-12-26T12:28:49.628Z,84.26
2018-12-26T12:29:54.872Z,84.26
2018-12-26T12:31:00.116Z,84.17
2018-12-26T12:32:03.121Z,84.42
2018-12-26T12:33:06.061Z,84.42
2018-12-26T12:34:12.724Z,83.81
2018-12-26T12:35:15.934Z,84.26
2018-12-26T12:36:18.939Z,84.16
2018-12-26T12:37:21.864Z,84.16
2018-12-26T12:38:26.183Z,84.16
2018-12-26T12:39:29.223Z,83.95
2018-12-26T12:40:32.219Z,83.46
2018-12-26T12:41:35.147Z,84.04
2018-12-26T12:42:38.070Z,84.04
2018-12-26T12:43:44.053Z,84.00
2018-12-26T12:44:47.351Z,83.84
2018-12-26T12:45:50.274Z,83.74
2018-12-26T12:46:53.223Z,83.74
2018-12-26T12:47:56.232Z,83.37
2018-12-26T12:48:59.173Z,83.37
2018-12-26T12:50:02.290Z,83.50
2018-12-26T12:51:05.553Z,83.97
2018-12-26T12:52:08.678Z,83.47
2018-12-26T12:53:11.603Z,83.47
2018-12-26T12:54:15.944Z,82.68
2018-12-26T12:55:18.980Z,82.80
2018-12-26T12:56:21.881Z,82.80
2018-12-26T12:57:25.712Z,82.73
2018-12-26T12:58:28.722Z,83.05
2018-12-26T12:59:31.667Z,82.68
2018-12-26T13:00:38.313Z,83.03
2018-12-26T13:01:41.308Z,83.03
2018-12-26T13:02:44.318Z,82.87
2018-12-26T13:03:47.807Z,82.97
2018-12-26T13:04:50.711Z,82.64
2018-12-26T13:05:53.754Z,82.66
2018-12-26T13:06:56.843Z,82.36
2018-12-26T13:07:59.925Z,82.10
2018-12-26T13:09:07.150Z,82.10
2018-12-26T13:10:11.683Z,82.45
2018-12-26T13:11:15.994Z,83.04
2018-12-26T13:12:21.615Z,83.24
2018-12-26T13:13:24.603Z,83.10
2018-12-26T13:14:31.428Z,83.10
2018-12-26T13:15:34.848Z,83.12
2018-12-26T13:16:41.309Z,83.04
2018-12-26T13:17:44.667Z,82.94
2018-12-26T13:18:47.658Z,82.84
2018-12-26T13:19:50.678Z,82.50
2018-12-26T13:20:54.132Z,83.11
2018-12-26T13:22:02.329Z,82.97
2018-12-26T13:23:05.325Z,82.97
2018-12-26T13:24:08.245Z,82.88
2018-12-26T13:25:11.193Z,82.85
2018-12-26T13:26:14.185Z,82.67
2018-12-26T13:27:17.125Z,82.53
2018-12-26T13:28:22.256Z,82.52
2018-12-26T13:29:25.227Z,82.91
2018-12-26T13:30:28.142Z,82.74
2018-12-26T13:31:31.205Z,83.12
2018-12-26T13:32:34.299Z,83.12
2018-12-26T13:33:37.232Z,83.36
2018-12-26T13:34:40.584Z,82.87
2018-12-26T13:35:43.538Z,83.76
2018-12-26T13:36:46.573Z,83.54
2018-12-26T13:37:49.552Z,83.73
2018-12-26T13:38:52.603Z,83.36
2018-12-26T13:39:55.731Z,83.15
2018-12-26T13:40:58.681Z,83.00
2018-12-26T13:42:01.689Z,84.27
2018-12-26T13:43:04.857Z,83.96
2018-12-26T13:44:07.770Z,83.80
2018-12-26T13:45:10.723Z,83.70
2018-12-26T13:46:14.051Z,84.39
2018-12-26T13:47:17.085Z,83.87
2018-12-26T13:48:21.384Z,84.05
2018-12-26T13:49:27.444Z,83.30
2018-12-26T13:50:31.096Z,83.94
2018-12-26T13:51:42.266Z,83.47
2018-12-26T13:52:48.139Z,83.73
2018-12-26T13:53:53.370Z,83.45
2018-12-26T13:54:56.333Z,83.45
2018-12-26T13:55:59.286Z,83.62
2018-12-26T13:57:03.510Z,83.43
2018-12-26T13:58:18.748Z,83.37
2018-12-26T13:59:24.115Z,83.43
2018-12-26T14:00:31.252Z,83.30
2018-12-26T14:01:43.068Z,83.12
2018-12-26T14:02:41.596Z,83.19
2018-12-26T14:03:44.637Z,82.60
2018-12-26T14:04:51.651Z,82.79
2018-12-26T14:05:56.759Z,83.21